createdAt,value
2018-11-20T00:01:27.153Z,18.53
2018-11-20T00:04:17.229Z,18.30
2018-11-20T00:07:19.034Z,17.90
2018-11-20T00:10:17.923Z,18.00
2018-11-20T00:13:19.875Z,18.00
2018-11-20T00:16:08.011Z,18.23
2018-11-20T00:19:03.023Z,18.63
2018-11-20T00:21:53.804Z,18.97
2018-11-20T00:24:43.461Z,18.63
2018-11-20T00:27:35.651Z,18.00
2018-11-20T00:30:26.921Z,19.30
2018-11-20T00:33:23.577Z,20.17
2018-11-20T00:36:11.764Z,19.60
2018-11-20T00:38:55.185Z,19.13
2018-11-20T00:41:50.952Z,19.70
2018-11-20T00:44:38.493Z,19.70
2018-11-20T00:47:23.637Z,19.83
2018-11-20T00:50:15.592Z,20.60
2018-11-20T00:53:03.590Z,21.03
2018-11-20T00:56:21.356Z,20.10
2018-11-20T00:59:18.711Z,21.17
2018-11-20T01:02:11.650Z,20.87
2018-11-20T01:04:53.889Z,19.77
2018-11-20T01:07:42.502Z,21.07
2018-11-20T01:10:29.517Z,20.03
2018-11-20T01:13:34.018Z,20.33
2018-11-20T01:16:26.573Z,20.70
2018-11-20T01:19:13.135Z,20.87
2018-11-20T01:22:01.511Z,21.03
2018-11-20T01:24:50.005Z,20.37
2018-11-20T01:27:38.303Z,20.47
2018-11-20T01:30:40.237Z,20.77
2018-11-20T01:33:21.338Z,20.90
2018-11-20T01:36:10.949Z,20.53
2018-11-20T01:39:06.506Z,20.23
2018-11-20T01:41:54.660Z,20.80
2018-11-20T01:44:44.294Z,21.53
2018-11-20T01:47:46.329Z,21.17
2018-11-20T01:50:35.956Z,19.93
2018-11-20T01:53:30.529Z,21.23
2018-11-20T01:56:18.796Z,20.30
2018-11-20T01:59:20.611Z,21.33
2018-11-20T02:02:13.564Z,20.97
2018-11-20T02:05:00.663Z,19.83
2018-11-20T02:07:50.278Z,20.30
2018-11-20T02:10:38.887Z,20.57
2018-11-20T02:13:58.857Z,20.90
2018-11-20T02:16:49.434Z,20.83
2018-11-20T02:19:47.953Z,20.60
2018-11-20T02:22:55.578Z,20.63
2018-11-20T02:25:54.109Z,20.87
2018-11-20T02:28:37.761Z,21.50
2018-11-20T02:31:27.403Z,20.10
2018-11-20T02:34:16.542Z,20.63
2018-11-20T02:36:55.058Z,21.73
2018-11-20T02:39:46.541Z,20.57
2018-11-20T02:42:26.308Z,20.30
2018-11-20T02:45:18.792Z,20.80
2018-11-20T02:48:06.772Z,20.97
2018-11-20T02:50:55.467Z,20.37
2018-11-20T02:53:51.222Z,20.57
2018-11-20T02:56:47.415Z,20.47
2018-11-20T02:59:35.988Z,21.10
2018-11-20T03:02:25.042Z,20.83
2018-11-20T03:05:13.824Z,22.00
2018-11-20T03:08:01.097Z,20.80
2018-11-20T03:10:53.255Z,21.37
2018-11-20T03:13:41.274Z,21.27
2018-11-20T03:16:33.685Z,20.20
2018-11-20T03:19:12.036Z,20.40
2018-11-20T03:21:59.933Z,20.13
2018-11-20T03:24:47.677Z,20.53
2018-11-20T03:27:40.140Z,20.20
2018-11-20T03:31:09.164Z,20.47
2018-11-20T03:34:08.403Z,20.23
2018-11-20T03:36:51.494Z,19.90
2018-11-20T03:39:43.984Z,19.70
2018-11-20T03:42:45.509Z,18.93
2018-11-20T03:45:47.178Z,19.97
2018-11-20T03:48:36.348Z,20.23
2018-11-20T03:51:24.725Z,19.27
2018-11-20T03:54:17.200Z,19.33
2018-11-20T03:57:06.832Z,19.63
2018-11-20T03:59:56.438Z,18.97
2018-11-20T04:02:42.927Z,19.87
2018-11-20T04:05:29.307Z,20.03
2018-11-20T04:08:17.380Z,18.70
2018-11-20T04:11:05.461Z,18.87
2018-11-20T04:13:58.625Z,19.93
2018-11-20T04:16:46.692Z,19.93
2018-11-20T04:19:41.937Z,19.47
2018-11-20T04:22:44.116Z,18.60
2018-11-20T04:25:36.353Z,18.83
2018-11-20T04:28:31.091Z,20.60
2018-11-20T04:31:51.825Z,19.03
2018-11-20T04:34:44.016Z,19.03
2018-11-20T04:37:32.349Z,19.37
2018-11-20T04:40:20.300Z,19.03
2018-11-20T04:43:09.946Z,18.83
2018-11-20T04:46:11.697Z,19.43
2018-11-20T04:48:59.949Z,18.50
2018-11-20T04:51:52.655Z,18.33
2018-11-20T04:54:45.212Z,19.33
2018-11-20T04:57:50.363Z,19.13
2018-11-20T05:00:48.881Z,19.40
2018-11-20T05:03:41.489Z,19.13
2018-11-20T05:06:29.814Z,18.00
2018-11-20T05:09:28.761Z,19.07
2018-11-20T05:12:24.276Z,18.20
2018-11-20T05:15:13.921Z,17.67
2018-11-20T05:18:02.326Z,18.90
2018-11-20T05:20:40.687Z,17.83
2018-11-20T05:23:33.307Z,18.53
2018-11-20T05:26:21.215Z,18.77
2018-11-20T05:29:11.129Z,18.60
2018-11-20T05:31:59.246Z,18.60
2018-11-20T05:34:54.658Z,19.70
2018-11-20T05:37:31.606Z,18.33
2018-11-20T05:40:27.349Z,19.47
2018-11-20T05:43:16.091Z,20.00
2018-11-20T05:46:10.551Z,19.17
2018-11-20T05:49:00.191Z,19.47
2018-11-20T05:51:49.037Z,19.30
2018-11-20T05:54:38.681Z,18.77
2018-11-20T05:57:35.221Z,18.70
2018-11-20T06:00:29.379Z,20.00
2018-11-20T06:03:14.385Z,19.90
2018-11-20T06:06:22.109Z,21.13
2018-11-20T06:09:13.064Z,17.93
2018-11-20T06:12:17.730Z,19.50
2018-11-20T06:15:13.604Z,19.40
2018-11-20T06:18:15.398Z,18.50
2018-11-20T06:21:03.641Z,19.07
2018-11-20T06:23:55.762Z,19.33
2018-11-20T06:26:41.681Z,18.87
2018-11-20T06:29:29.541Z,19.30
2018-11-20T06:32:27.958Z,19.27
2018-11-20T06:35:18.013Z,19.17
2018-11-20T06:38:13.674Z,19.80
2018-11-20T06:41:03.880Z,19.33
2018-11-20T06:44:09.052Z,18.80
2018-11-20T06:46:56.966Z,18.27
2018-11-20T06:49:55.300Z,19.00
2018-11-20T06:52:57.234Z,18.93
2018-11-20T06:55:47.763Z,19.50
2018-11-20T06:58:40.008Z,18.93
2018-11-20T07:01:19.224Z,18.97
2018-11-20T07:04:14.906Z,18.63
2018-11-20T07:07:07.719Z,20.10
2018-11-20T07:09:55.910Z,18.73
2018-11-20T07:12:44.136Z,19.53
2018-11-20T07:15:35.464Z,19.80
2018-11-20T07:18:25.078Z,19.93
2018-11-20T07:21:23.765Z,19.97
2018-11-20T07:24:13.444Z,19.00
2018-11-20T07:27:03.243Z,19.97
2018-11-20T07:29:51.464Z,20.53
2018-11-20T07:32:50.246Z,19.70
2018-11-20T07:35:38.302Z,20.80
2018-11-20T07:38:26.303Z,20.73
2018-11-20T07:41:15.009Z,20.17
2018-11-20T07:43:59.516Z,20.13
2018-11-20T07:46:44.376Z,20.20
2018-11-20T07:49:30.181Z,19.50
2018-11-20T07:52:26.279Z,20.90
2018-11-20T07:55:16.181Z,20.43
2018-11-20T07:58:17.508Z,19.60
2018-11-20T08:01:10.700Z,20.13
2018-11-20T08:04:07.876Z,19.37
2018-11-20T08:07:00.126Z,19.27
2018-11-20T08:09:46.537Z,20.97
2018-11-20T08:12:27.360Z,19.77
2018-11-20T08:15:16.992Z,20.63
2018-11-20T08:18:15.544Z,20.67
2018-11-20T08:21:05.491Z,19.30
2018-11-20T08:23:53.593Z,20.70
2018-11-20T08:26:41.932Z,19.77
2018-11-20T08:29:29.670Z,21.20
2018-11-20T08:32:28.127Z,19.70
2018-11-20T08:35:23.531Z,20.47
2018-11-20T08:38:23.096Z,18.97
2018-11-20T08:41:11.211Z,20.83
2018-11-20T08:43:59.636Z,20.63
2018-11-20T08:46:47.691Z,20.57
2018-11-20T08:49:37.314Z,20.07
2018-11-20T08:52:29.544Z,20.07
2018-11-20T08:55:12.318Z,19.43
2018-11-20T08:58:00.268Z,19.80
2018-11-20T09:00:58.846Z,19.73
2018-11-20T09:03:57.139Z,20.70
2018-11-20T09:06:45.302Z,20.57
2018-11-20T09:09:34.921Z,20.03
2018-11-20T09:12:29.030Z,18.70
2018-11-20T09:15:18.963Z,19.50
2018-11-20T09:18:14.474Z,20.07
2018-11-20T09:21:04.118Z,19.50
2018-11-20T09:24:08.324Z,18.77
2018-11-20T09:26:51.885Z,19.87
2018-11-20T09:29:38.113Z,20.23
2018-11-20T09:32:20.268Z,19.63
2018-11-20T09:35:06.505Z,18.07
2018-11-20T09:38:04.832Z,19.93
2018-11-20T09:41:06.545Z,19.60
2018-11-20T09:44:09.691Z,19.47
2018-11-20T09:47:01.991Z,18.93
2018-11-20T09:49:40.554Z,19.33
2018-11-20T09:52:29.144Z,19.23
2018-11-20T09:55:28.900Z,18.53
2018-11-20T09:58:17.445Z,20.03
2018-11-20T10:01:19.163Z,19.73
2018-11-20T10:03:57.313Z,19.47
2018-11-20T10:06:43.159Z,18.37
2018-11-20T10:09:31.614Z,19.17
2018-11-20T10:12:20.000Z,18.73
2018-11-20T10:15:10.636Z,19.27
2018-11-20T10:17:59.233Z,19.47
2018-11-20T10:20:54.648Z,19.43
2018-11-20T10:23:42.712Z,19.13
2018-11-20T10:26:30.847Z,19.33
2018-11-20T10:29:38.535Z,18.43
2018-11-20T10:32:17.760Z,19.10
2018-11-20T10:35:10.623Z,19.10
2018-11-20T10:37:50.621Z,19.03
2018-11-20T10:40:43.001Z,19.13
2018-11-20T10:43:31.431Z,18.17
2018-11-20T10:46:39.284Z,18.10
2018-11-20T10:49:34.459Z,18.77
2018-11-20T10:52:30.270Z,18.43
2018-11-20T10:55:26.564Z,17.43
2018-11-20T10:58:07.858Z,19.07
2018-11-20T11:00:55.830Z,18.30
2018-11-20T11:03:43.879Z,17.63
2018-11-20T11:06:33.853Z,18.33
2018-11-20T11:09:22.226Z,18.23
2018-11-20T11:12:15.365Z,18.13
2018-11-20T11:15:14.124Z,17.67
2018-11-20T11:18:21.946Z,17.73
2018-11-20T11:21:11.638Z,17.93
2018-11-20T11:24:04.033Z,17.03
2018-11-20T11:27:08.430Z,17.93
2018-11-20T11:30:00.438Z,17.33
2018-11-20T11:32:48.565Z,18.07
2018-11-20T11:35:36.697Z,16.87
2018-11-20T11:38:26.584Z,18.10
2018-11-20T11:41:33.944Z,17.73
2018-11-20T11:44:23.566Z,17.60
2018-11-20T11:47:09.703Z,17.33
2018-11-20T11:49:58.418Z,16.87
2018-11-20T11:52:39.628Z,16.90
2018-11-20T11:55:27.926Z,17.17
2018-11-20T11:58:29.977Z,16.97
2018-11-20T12:01:18.635Z,17.70
2018-11-20T12:04:10.363Z,17.20
2018-11-20T12:06:58.926Z,17.40
2018-11-20T12:09:51.595Z,16.97
2018-11-20T12:12:59.678Z,17.47
2018-11-20T12:15:55.277Z,17.60
2018-11-20T12:18:50.447Z,16.77
2018-11-20T12:21:55.218Z,16.07
2018-11-20T12:24:43.258Z,16.83
2018-11-20T12:27:32.897Z,15.73
2018-11-20T12:30:16.062Z,16.87
2018-11-20T12:33:08.503Z,16.40
2018-11-20T12:36:15.913Z,15.87
2018-11-20T12:38:55.966Z,16.53
2018-11-20T12:41:34.942Z,16.13
2018-11-20T12:44:23.180Z,16.33
2018-11-20T12:47:15.121Z,15.37
2018-11-20T12:50:00.175Z,15.60
2018-11-20T12:53:02.533Z,15.07
2018-11-20T12:55:49.912Z,15.73
2018-11-20T12:58:38.860Z,14.47
2018-11-20T13:01:27.282Z,14.67
2018-11-20T13:04:11.591Z,15.57
2018-11-20T13:06:57.683Z,15.50
2018-11-20T13:09:42.692Z,15.07
2018-11-20T13:12:32.311Z,15.63
2018-11-20T13:15:28.923Z,15.13
2018-11-20T13:18:16.876Z,16.00
2018-11-20T13:21:18.783Z,14.67
2018-11-20T13:24:05.687Z,14.07
2018-11-20T13:27:13.742Z,14.20
2018-11-20T13:30:12.505Z,14.33
2018-11-20T13:33:08.045Z,14.10
2018-11-20T13:35:56.245Z,13.40
2018-11-20T13:38:44.332Z,14.00
2018-11-20T13:41:53.957Z,13.43
2018-11-20T13:44:55.114Z,12.93
2018-11-20T13:47:53.426Z,13.60
2018-11-20T13:50:47.773Z,13.57
2018-11-20T13:53:35.979Z,13.70
2018-11-20T13:56:25.930Z,13.20
2018-11-20T13:59:33.725Z,13.30
2018-11-20T14:02:23.767Z,14.83
2018-11-20T14:05:28.409Z,14.33
2018-11-20T14:08:10.080Z,13.60
2018-11-20T14:10:49.115Z,15.03
2018-11-20T14:13:33.819Z,13.93
2018-11-20T14:16:22.033Z,14.53
2018-11-20T14:19:18.212Z,18.03
2018-11-20T14:22:16.420Z,15.80
2018-11-20T14:25:18.165Z,22.33
2018-11-20T14:28:06.326Z,16.67
2018-11-20T14:30:55.715Z,21.07
2018-11-20T14:33:43.974Z,18.87
2018-11-20T14:36:32.332Z,21.37
2018-11-20T14:39:27.891Z,30.13
2018-11-20T14:42:29.653Z,20.63
2018-11-20T14:45:20.834Z,18.90
2018-11-20T14:48:16.382Z,21.07
2018-11-20T14:51:17.847Z,24.13
2018-11-20T14:54:01.813Z,29.63
2018-11-20T14:56:42.455Z,19.80
2018-11-20T14:59:31.218Z,17.73
2018-11-20T15:02:19.517Z,14.93
2018-11-20T15:05:09.167Z,14.20
2018-11-20T15:08:10.972Z,13.20
2018-11-20T15:11:21.370Z,15.73
2018-11-20T15:14:23.474Z,23.73
2018-11-20T15:17:11.854Z,19.77
2018-11-20T15:20:00.213Z,16.10
2018-11-20T15:22:53.378Z,16.70
2018-11-20T15:25:49.042Z,13.73
2018-11-20T15:28:37.372Z,13.90
2018-11-20T15:31:24.575Z,14.50
2018-11-20T15:34:23.103Z,13.70
2018-11-20T15:37:11.044Z,13.90
2018-11-20T15:40:12.607Z,13.37
2018-11-20T15:42:55.844Z,14.03
2018-11-20T15:45:48.239Z,14.23
2018-11-20T15:48:37.912Z,14.23
2018-11-20T15:51:23.973Z,17.07
2018-11-20T15:54:19.273Z,15.17
2018-11-20T15:57:07.766Z,13.67
2018-11-20T16:00:00.377Z,14.00
2018-11-20T16:02:55.876Z,17.73
2018-11-20T16:05:43.956Z,19.53
2018-11-20T16:08:42.693Z,36.67
2018-11-20T16:11:32.420Z,21.57
2018-11-20T16:14:27.622Z,18.43
2018-11-20T16:17:17.735Z,15.93
2018-11-20T16:20:12.615Z,14.20
2018-11-20T16:23:02.241Z,14.50
2018-11-20T16:26:01.029Z,14.27
2018-11-20T16:28:49.302Z,14.53
2018-11-20T16:31:30.488Z,15.77
2018-11-20T16:34:18.720Z,20.10
2018-11-20T16:37:14.919Z,16.50
2018-11-20T16:40:20.224Z,14.33
2018-11-20T16:43:10.160Z,15.77
2018-11-20T16:45:59.783Z,14.60
2018-11-20T16:49:01.478Z,14.23
2018-11-20T16:51:56.993Z,13.47
2018-11-20T16:54:36.326Z,13.40
2018-11-20T16:57:27.320Z,14.13
2018-11-20T17:00:19.879Z,14.20
2018-11-20T17:03:07.842Z,13.40
2018-11-20T17:06:09.707Z,14.37
2018-11-20T17:09:11.521Z,14.17
2018-11-20T17:11:59.510Z,13.93
2018-11-20T17:14:40.111Z,15.63
2018-11-20T17:17:28.025Z,13.93
2018-11-20T17:20:26.245Z,14.20
2018-11-20T17:23:14.763Z,13.83
2018-11-20T17:26:04.427Z,13.90
2018-11-20T17:28:49.802Z,14.03
2018-11-20T17:31:40.887Z,13.93
2018-11-20T17:34:30.483Z,14.23
2018-11-20T17:37:18.323Z,14.33
2018-11-20T17:40:07.648Z,14.57
2018-11-20T17:42:55.861Z,15.23
2018-11-20T17:45:45.500Z,15.70
2018-11-20T17:48:33.911Z,15.03
2018-11-20T17:51:17.459Z,14.97
2018-11-20T17:54:05.530Z,15.07
2018-11-20T17:57:13.053Z,15.17
2018-11-20T18:00:20.497Z,16.03
2018-11-20T18:03:08.642Z,15.63
2018-11-20T18:05:56.853Z,16.93
2018-11-20T18:08:45.265Z,16.37
2018-11-20T18:11:41.246Z,16.70
2018-11-20T18:14:33.453Z,16.10
2018-11-20T18:17:31.967Z,16.10
2018-11-20T18:20:36.306Z,16.07
2018-11-20T18:23:24.722Z,16.30
2018-11-20T18:26:23.458Z,15.80
2018-11-20T18:29:10.013Z,17.27
2018-11-20T18:32:02.733Z,17.70
2018-11-20T18:34:44.263Z,17.53
2018-11-20T18:37:46.409Z,20.80
2018-11-20T18:40:35.131Z,17.33
2018-11-20T18:43:20.229Z,15.20
2018-11-20T18:46:09.835Z,16.00
2018-11-20T18:49:07.223Z,16.03
2018-11-20T18:52:08.946Z,15.37
2018-11-20T18:54:58.556Z,14.93
2018-11-20T18:57:47.258Z,15.47
2018-11-20T19:00:46.626Z,14.73
2018-11-20T19:03:35.849Z,14.93
2018-11-20T19:06:24.385Z,14.67
2018-11-20T19:09:19.619Z,14.97
2018-11-20T19:12:24.376Z,13.80
2018-11-20T19:15:14.032Z,13.20
2018-11-20T19:18:10.172Z,13.40
2018-11-20T19:20:58.675Z,13.93
2018-11-20T19:23:46.883Z,13.67
2018-11-20T19:26:36.805Z,14.43
2018-11-20T19:29:32.468Z,15.23
2018-11-20T19:32:20.538Z,15.63
2018-11-20T19:35:08.426Z,16.70
2018-11-20T19:38:16.179Z,16.63
2018-11-20T19:41:11.632Z,15.07
2018-11-20T19:43:59.753Z,15.73
2018-11-20T19:46:49.363Z,15.40
2018-11-20T19:49:32.837Z,15.80
2018-11-20T19:52:17.853Z,16.00
2018-11-20T19:55:25.556Z,15.07
2018-11-20T19:58:13.682Z,15.67
2018-11-20T20:01:01.734Z,15.77
2018-11-20T20:03:49.471Z,16.40
2018-11-20T20:13:35.031Z,16.17
2018-11-20T20:16:23.934Z,16.03
2018-11-20T20:19:12.809Z,16.07
2018-11-20T20:22:00.255Z,16.27
2018-11-20T20:25:07.205Z,16.73
2018-11-20T20:28:04.780Z,15.97
2018-11-20T20:31:02.285Z,16.00
2018-11-20T20:33:54.833Z,16.50
2018-11-20T20:36:55.901Z,15.40
2018-11-20T20:39:43.166Z,15.47
2018-11-20T20:42:30.486Z,15.20
2018-11-20T20:45:31.462Z,14.73
2018-11-20T20:48:20.256Z,15.93
2018-11-20T20:51:09.927Z,15.60
2018-11-20T21:00:23.868Z,14.87
2018-11-20T21:03:04.348Z,14.97
2018-11-20T21:05:51.720Z,14.83
2018-11-20T21:08:45.065Z,14.90
2018-11-20T21:11:49.043Z,15.20
2018-11-20T21:17:27.788Z,15.00
2018-11-20T21:20:16.551Z,15.13
2018-11-20T21:23:05.335Z,14.73
2018-11-20T21:25:54.183Z,15.43
2018-11-20T21:28:41.610Z,14.40
2018-11-20T21:31:42.324Z,14.80
2018-11-20T21:34:46.374Z,16.07
2018-11-20T21:37:47.277Z,15.33
2018-11-20T21:40:36.079Z,15.13
2018-11-20T21:43:36.667Z,15.17
2018-11-20T21:46:40.878Z,16.23
2018-11-20T21:49:28.377Z,15.93
2018-11-20T21:52:17.192Z,15.53
2018-11-20T21:55:11.895Z,16.40
2018-11-20T21:57:55.010Z,15.60
2018-11-20T22:01:18.154Z,16.43
2018-11-20T22:04:05.340Z,15.23
2018-11-20T22:06:52.494Z,16.13
2018-11-20T22:09:42.241Z,17.43
2018-11-20T22:12:33.702Z,17.17
2018-11-20T22:15:20.925Z,16.33
2018-11-20T22:18:08.126Z,17.67
2018-11-20T22:21:06.071Z,15.63
2018-11-20T22:24:01.580Z,15.10
2018-11-20T22:27:05.952Z,15.07
2018-11-20T22:29:53.373Z,17.07
2018-11-20T22:32:48.491Z,17.23
2018-11-20T22:35:43.316Z,17.47
2018-11-20T22:38:46.895Z,17.07
2018-11-20T22:41:34.116Z,18.00
2018-11-20T22:44:28.586Z,17.63
2018-11-20T22:47:24.569Z,19.53
2018-11-20T22:50:19.116Z,20.40
2018-11-20T22:53:14.003Z,20.53
2018-11-20T22:56:11.973Z,21.20
2018-11-20T22:59:03.466Z,17.40
2018-11-20T23:01:50.658Z,16.83
2018-11-20T23:04:40.875Z,16.50
2018-11-20T23:07:28.087Z,16.33
2018-11-20T23:09:57.805Z,18.13
2018-11-20T23:12:28.077Z,16.73
2018-11-20T23:14:57.778Z,17.33
2018-11-20T23:17:27.478Z,17.27
2018-11-20T23:19:57.213Z,17.53
2018-11-20T23:22:27.006Z,16.27
2018-11-20T23:24:56.607Z,17.00
2018-11-20T23:27:26.533Z,16.33
2018-11-20T23:29:56.252Z,17.43
2018-11-20T23:32:25.946Z,16.73
2018-11-20T23:34:56.137Z,16.20
2018-11-20T23:37:25.982Z,16.23
2018-11-20T23:39:56.084Z,15.43
2018-11-20T23:42:25.747Z,14.90
2018-11-20T23:44:55.429Z,15.23
2018-11-20T23:47:25.347Z,15.20
2018-11-20T23:49:55.278Z,15.07
2018-11-20T23:52:25.195Z,14.47
2018-11-20T23:54:54.871Z,14.83
2018-11-20T23:57:24.539Z,14.47
2018-11-20T23:59:54.502Z,15.50
